Latest Weather Observations for Williamtown

IDN60901

Issued at 4:21 pm EST Friday 27 May 2016 (issued every 10 minutes, with the page automatically refreshed every 10 minutes)

About weather observations | Map of Sydney area stations | Latest observations for Sydney area | Other Formats
Station Details ID: 061078 Name: WILLIAMTOWN RAAF Lat: -32.79 Lon: 151.84 Height: 9.0 m
Data from the previous 72 hours. | See also: Recent months at Williamtown
Date/Time
EST
Tmp

°C
App
Tmp
°C
Dew
Point
°C
Rel
Hum
%
Delta-T

°C
Wind Press
QNH
hPa
Press
MSL
hPa
Rain
since
9 am
mm
Dir
 
Spd
km/h
Gust
km/h
Spd
kts
Gust
kts
27/04:00pm 17.2 7.0 -0.2 30 7.5 WNW 43 61 23 33 1003.4 1003.4 0.0
27/03:34pm 17.8 8.0 -0.2 29 7.8 WNW 41 59 22 32 1003.0 1003.0 0.0
27/03:30pm 17.8 7.4 -0.5 29 7.8 WNW 44 59 24 32 1002.9 1002.9 0.0
27/03:00pm 18.1 7.2 -1.1 27 8.2 WNW 46 69 25 37 1002.3 1002.3 0.0
27/02:37pm 18.8 8.1 0.2 28 8.2 WNW 46 65 25 35 1002.3 1002.3 0.0
27/02:30pm 18.7 8.3 -0.7 27 8.3 WNW 44 57 24 31 1002.2 1002.2 0.0
27/02:19pm 18.9 9.9 0.0 28 8.3 WNW 37 59 20 32 1002.4 1002.4 0.0
27/02:00pm 18.8 8.4 -0.1 28 8.3 WNW 44 59 24 32 1002.2 1002.2 0.0
27/01:30pm 18.8 8.6 0.9 30 8.0 WNW 44 63 24 34 1002.3 1002.3 0.0
27/01:00pm 18.2 8.6 1.3 32 7.6 NW 41 59 22 32 1002.5 1002.5 0.0
27/12:58pm 18.4 8.9 1.6 32 7.6 NW 41 59 22 32 1002.5 1002.5 0.0
27/12:30pm 17.9 7.4 1.4 33 7.4 WNW 46 57 25 31 1002.9 1002.9 0.0
27/12:13pm 17.5 7.6 1.4 34 7.2 WNW 43 61 23 33 1003.0 1003.0 0.0
27/12:00pm 17.7 7.8 1.7 34 7.2 WNW 43 59 23 32 1003.2 1003.2 0.0
27/11:30am 17.4 7.9 1.9 35 7.0 WNW 41 61 22 33 1003.7 1003.7 0.0
27/11:25am 17.5 9.6 2.0 35 7.0 WNW 33 54 18 29 1003.8 1003.8 0.0
27/11:00am 17.3 7.9 2.4 37 6.8 WNW 41 54 22 29 1004.3 1004.3 0.0
27/10:47am 16.7 6.9 2.3 38 6.5 WNW 43 61 23 33 1004.5 1004.5 0.0
27/10:30am 16.5 7.1 2.6 39 6.3 WNW 41 57 22 31 1004.6 1004.6 0.0
27/10:00am 16.3 7.1 3.5 42 5.9 NW 41 54 22 29 1004.9 1004.9 0.0
27/09:49am 16.2 7.4 3.4 42 5.9 WNW 39 57 21 31 1004.9 1004.9 0.0
27/09:30am 15.8 6.3 3.7 44 5.6 NW 43 57 23 31 1005.0 1005.0 0.0
27/09:00am 15.3 6.2 4.1 47 5.2 WNW 41 52 22 28 1005.1 1005.1 0.4
27/08:30am 14.5 6.2 4.1 49 4.8 NW 37 54 20 29 1004.9 1004.9 0.4
27/08:19am 14.2 6.7 4.5 52 4.5 NW 33 52 18 28 1004.8 1004.8 0.4
27/08:00am 13.6 6.3 4.5 54 4.2 NW 32 39 17 21 1004.8 1004.8 0.4
27/07:30am 12.8 6.7 4.8 58 3.7 WNW 26 37 14 20 1004.8 1004.8 0.4
27/07:00am 12.4 5.9 4.8 60 3.5 WNW 28 39 15 21 1004.4 1004.4 0.4
27/06:30am 12.5 6.5 5.4 62 3.3 WNW 26 37 14 20 1004.1 1004.1 0.4
27/06:00am 12.6 6.8 6.3 65 3.0 WNW 26 37 14 20 1003.7 1003.7 0.4
27/05:30am 12.2 7.4 7.5 73 2.3 WNW 22 28 12 15 1003.5 1003.5 0.4
27/05:00am 12.3 8.2 7.8 74 2.2 WNW 19 26 10 14 1003.3 1003.3 0.4
27/04:30am 12.2 8.6 8.2 76 2.0 WNW 17 22 9 12 1003.2 1003.2 0.4
27/04:00am 12.4 9.5 8.2 75 2.1 WNW 13 17 7 9 1003.1 1003.1 0.4
27/03:30am 12.6 9.0 8.4 75 2.1 WNW 17 22 9 12 1003.1 1003.1 0.4
27/03:00am 13.1 9.5 8.5 73 2.3 WNW 17 24 9 13 1003.0 1003.0 0.4
27/02:30am 14.5 10.4 8.6 67 3.0 WNW 20 28 11 15 1003.1 1003.1 0.4
27/02:00am 14.8 10.1 9.2 69 2.9 NW 24 32 13 17 1002.8 1002.8 0.4
27/01:30am 14.8 9.9 9.8 72 2.6 NW 26 32 14 17 1002.7 1002.7 0.4
27/01:00am 15.5 10.7 10.2 70 2.8 NW 26 33 14 18 1003.0 1003.0 0.4
27/12:30am 15.3 10.5 10.2 71 2.7 WNW 26 33 14 18 1003.2 1003.2 0.4
27/12:00am 16.1 11.6 10.0 67 3.2 WNW 24 32 13 17 1003.3 1003.3 0.4
 
Date/Time
EST
Tmp

°C
App
Tmp
°C
Dew
Point
°C
Rel
Hum
%
Delta-T

°C
Wind Press
QNH
hPa
Press
MSL
hPa
Rain
since
9 am
mm
Dir
 
Spd
km/h
Gust
km/h
Spd
kts
Gust
kts
26/11:30pm 16.5 10.9 10.1 66 3.4 WNW 30 37 16 20 1003.2 1003.2 0.4
26/11:00pm 16.8 11.1 9.8 63 3.7 WNW 30 37 16 20 1003.2 1003.2 0.4
26/10:30pm 16.5 10.8 9.9 65 3.5 WNW 30 39 16 21 1003.1 1003.1 0.4
26/10:00pm 16.2 10.1 9.7 65 3.4 WNW 32 46 17 25 1003.2 1003.2 0.4
26/09:30pm 16.1 10.8 9.8 66 3.3 WNW 28 35 15 19 1003.6 1003.6 0.4
26/09:00pm 16.3 10.7 10.0 66 3.3 WNW 30 43 16 23 1003.6 1003.6 0.4
26/08:30pm 16.0 11.3 10.6 70 2.9 WNW 26 35 14 19 1003.6 1003.6 0.4
26/08:00pm 16.5 11.4 10.5 67 3.2 WNW 28 35 15 19 1003.3 1003.3 0.4
26/07:30pm 16.8 10.8 10.2 65 3.5 WNW 32 43 17 23 1003.1 1003.1 0.4
26/07:00pm 16.9 11.7 10.1 64 3.6 WNW 28 39 15 21 1003.0 1003.0 0.4
26/06:35pm 16.9 11.2 9.9 63 3.7 WNW 30 48 16 26 1003.0 1003.0 0.4
26/06:30pm 17.0 11.7 10.0 63 3.7 WNW 28 41 15 22 1002.9 1002.9 0.4
26/06:00pm 16.9 11.1 9.5 61 3.9 WNW 30 44 16 24 1002.4 1002.4 0.4
26/05:30pm 16.8 11.7 9.1 60 4.0 WNW 26 33 14 18 1002.6 1002.6 0.4
26/05:00pm 17.5 11.1 8.6 56 4.6 WNW 32 39 17 21 1002.6 1002.6 0.4
26/04:30pm 17.5 11.4 8.4 55 4.7 WNW 30 37 16 20 1002.6 1002.6 0.4
26/04:00pm 17.2 15.0 9.4 60 4.1 WSW 11 17 6 9 1002.6 1002.6 0.4
26/03:30pm 17.2 14.7 9.8 61 3.9 SW 13 19 7 10 1002.7 1002.7 0.4
26/03:00pm 18.0 15.1 8.1 52 5.1 SW 13 17 7 9 1002.7 1002.7 0.4
26/02:30pm 16.8 15.8 8.9 59 4.1 SW 4 7 2 4 1003.0 1003.0 0.4
26/02:00pm 16.6 13.8 8.4 58 4.2 W 13 19 7 10 1003.5 1003.5 0.4
26/01:30pm 16.7 12.7 8.3 57 4.3 W 19 26 10 14 1003.7 1003.7 0.4
26/01:00pm 17.7 16.1 8.6 55 4.7 NNW 7 13 4 7 1004.0 1004.0 0.4
26/12:30pm 16.7 12.3 7.6 55 4.6 NNW 20 26 11 14 1004.6 1004.6 0.4
26/12:00pm 13.7 11.5 9.4 75 2.2 NW 11 17 6 9 1005.6 1005.6 0.4
26/11:30am 13.1 10.1 9.4 78 1.9 NW 15 19 8 10 1007.7 1007.7 0.4
26/11:00am 12.2 10.0 9.2 82 1.5 NNW 11 13 6 7 1008.1 1008.1 0.4
26/10:30am 12.5 10.3 9.3 81 1.6 W 11 17 6 9 1008.8 1008.7 0.2
26/10:00am 13.3 11.9 8.9 74 2.2 NW 6 7 3 4 1008.8 1008.7 0.0
26/09:30am 13.3 12.9 8.1 71 2.6 CALM 0 4 0 2 1008.7 1008.6 0.0
26/09:00am 12.2 9.2 7.7 74 2.2 N 13 17 7 9 1009.3 1009.2 1.0
26/08:30am 12.1 11.5 9.1 82 1.5 NW 2 9 1 5 1010.2 1010.1 1.0
26/08:00am 11.7 9.7 8.7 82 1.5 N 9 13 5 7 1010.2 1010.1 1.0
26/07:30am 11.4 9.7 10.0 91 0.7 NNW 9 11 5 6 1010.4 1010.3 1.0
26/07:00am 11.1 9.3 9.3 89 0.9 N 9 11 5 6 1010.5 1010.4 1.0
26/06:30am 11.6 10.3 9.2 85 1.2 NW 6 7 3 4 1011.0 1010.9 0.8
26/06:00am 12.0 10.8 9.6 85 1.2 NNW 6 7 3 4 1011.0 1010.9 0.6
26/05:30am 12.5 10.6 8.9 79 1.8 N 9 13 5 7 1010.9 1010.8 0.4
26/05:00am 13.6 10.4 6.8 63 3.3 NW 13 19 7 10 1011.6 1011.5 0.2
26/04:30am 12.8 10.1 7.5 70 2.6 NW 11 15 6 8 1011.8 1011.7 0.0
26/04:00am 13.1 10.2 6.6 64 3.1 NW 11 11 6 6 1011.7 1011.6 0.0
26/03:30am 12.7 9.2 5.4 61 3.4 NW 13 15 7 8 1011.6 1011.5 0.0
26/03:00am 12.5 10.2 5.9 64 3.1 NW 7 9 4 5 1011.7 1011.6 0.0
26/02:30am 12.8 10.6 6.0 63 3.2 WNW 7 7 4 4 1012.1 1012.0 0.0
26/02:00am 12.0 9.7 5.5 64 3.0 NW 7 9 4 5 1012.2 1012.1 0.0
26/01:30am 12.3 8.8 3.3 54 4.0 NW 11 13 6 7 1012.3 1012.2 0.0
26/01:00am 12.4 8.4 3.1 53 4.1 NW 13 13 7 7 1012.5 1012.4 0.0
26/12:30am 12.2 8.8 4.0 57 3.7 NW 11 13 6 7 1012.7 1012.6 0.0
26/12:00am 12.4 8.1 3.1 53 4.1 NW 15 17 8 9 1013.2 1013.1 0.0
 
Date/Time
EST
Tmp

°C
App
Tmp
°C
Dew
Point
°C
Rel
Hum
%
Delta-T

°C
Wind Press
QNH
hPa
Press
MSL
hPa
Rain
since
9 am
mm
Dir
 
Spd
km/h
Gust
km/h
Spd
kts
Gust
kts
25/11:30pm 9.6 7.5 5.7 76 1.8 NNW 6 9 3 5 1013.7 1013.6 0.0
25/11:00pm 9.1 8.2 6.0 81 1.4 CALM 0 0 0 0 1013.8 1013.7 0.0
25/10:30pm 11.0 8.6 5.3 68 2.6 NE 7 9 4 5 1013.8 1013.7 0.0
25/10:00pm 11.3 8.8 6.4 72 2.3 NE 9 11 5 6 1014.1 1014.0 0.0
25/09:30pm 10.6 8.3 5.6 71 2.3 N 7 9 4 5 1014.5 1014.4 0.0
25/09:00pm 11.6 8.8 5.0 64 3.0 N 9 11 5 6 1014.6 1014.5 0.0
25/08:30pm 13.1 10.2 4.6 56 3.9 N 9 11 5 6 1014.5 1014.4 0.0
25/08:00pm 12.7 10.1 6.1 64 3.1 N 9 11 5 6 1014.5 1014.4 0.0
25/07:30pm 11.4 9.1 5.8 68 2.6 NNW 7 13 4 7 1014.6 1014.5 0.0
25/07:00pm 12.4 10.6 7.0 69 2.6 NNE 6 7 3 4 1014.5 1014.4 0.0
25/06:30pm 13.1 11.0 6.6 64 3.1 NNE 7 9 4 5 1014.4 1014.3 0.0
25/06:00pm 13.8 11.4 6.8 62 3.4 NE 9 9 5 5 1014.1 1014.0 0.0
25/05:30pm 15.5 13.0 6.7 55 4.3 ENE 9 11 5 6 1013.9 1013.8 0.0
25/05:00pm 16.4 13.5 6.6 52 4.8 ENE 11 13 6 7 1013.6 1013.5 0.0
25/04:30pm 17.6 15.0 6.2 47 5.6 ESE 9 11 5 6 1013.7 1013.6 0.0
25/04:00pm 19.7 16.8 1.7 30 8.2 WSW 6 7 3 4 1013.7 1013.6 0.0
25/03:30pm 20.4 16.6 -0.6 24 9.2 WSW 9 11 5 6 1013.8 1013.7 0.0
25/03:00pm 21.0 17.0 -2.2 21 9.9 WNW 9 13 5 7 1013.9 1013.8 0.0
25/02:30pm 21.1 16.8 -1.6 21 9.8 WNW 11 15 6 8 1014.1 1014.0 0.0
25/02:00pm 20.6 16.1 -0.6 24 9.3 WNW 13 17 7 9 1014.4 1014.3 0.0
25/01:30pm 20.1 16.1 0.3 26 8.8 W 11 20 6 11 1014.7 1014.6 0.0
25/01:00pm 19.8 15.6 1.5 29 8.3 W 13 17 7 9 1015.2 1015.1 0.0
25/12:30pm 19.0 14.7 0.8 29 8.1 WNW 13 19 7 10 1015.6 1015.5 0.0
25/12:00pm 18.7 13.5 2.3 33 7.5 WNW 19 26 10 14 1016.4 1016.3 0.0
25/11:30am 18.9 12.8 2.6 33 7.5 WNW 24 30 13 16 1017.2 1017.1 0.0
25/11:00am 18.1 12.1 3.5 38 6.8 WNW 24 32 13 17 1017.8 1017.7 0.0
25/10:30am 16.8 10.0 3.0 39 6.3 WNW 28 35 15 19 1018.0 1017.9 0.0
25/10:00am 15.9 8.4 3.4 43 5.7 WNW 32 43 17 23 1018.3 1018.2 0.0
25/09:32am 15.5 8.4 3.7 45 5.4 WNW 30 48 16 26 1018.5 1018.4 0.0
25/09:30am 15.2 8.5 3.6 46 5.3 WNW 28 43 15 23 1018.5 1018.4 0.0
25/09:00am 14.4 7.0 3.9 49 4.8 WNW 32 44 17 24 1018.6 1018.5 0.0
25/08:30am 13.2 6.6 4.4 55 4.0 WNW 28 35 15 19 1018.7 1018.6 0.0
25/08:00am 11.7 6.7 4.4 61 3.3 WNW 20 28 11 15 1018.4 1018.3 0.0
25/07:30am 10.4 5.3 4.3 66 2.7 WNW 20 28 11 15 1018.3 1018.2 0.0
25/07:00am 9.6 4.1 4.1 68 2.4 WNW 22 32 12 17 1018.0 1017.9 0.0
25/06:30am 9.6 3.8 4.4 70 2.3 WNW 24 32 13 17 1017.8 1017.7 0.0
25/06:00am 9.9 3.7 4.2 67 2.5 WNW 26 32 14 17 1017.4 1017.3 0.0
25/05:30am 9.8 4.8 4.4 69 2.4 WNW 20 28 11 15 1017.4 1017.3 0.0
25/05:00am 10.2 5.1 4.1 66 2.7 WNW 20 28 11 15 1017.4 1017.3 0.0
25/04:30am 10.4 5.3 4.1 65 2.8 WNW 20 28 11 15 1017.3 1017.2 0.0
25/04:00am 10.7 5.2 4.2 64 2.9 WNW 22 28 12 15 1017.0 1016.9 0.0
25/03:30am 10.8 4.9 4.0 63 3.0 WNW 24 32 13 17 1017.0 1016.9 0.0
25/03:00am 10.9 5.4 3.9 62 3.1 WNW 22 32 12 17 1017.1 1017.0 0.0
25/02:30am 11.3 5.3 3.6 59 3.4 WNW 24 32 13 17 1017.3 1017.2 0.0
25/02:00am 11.8 5.1 3.4 56 3.7 WNW 28 35 15 19 1017.4 1017.3 0.0
25/01:30am 12.0 5.2 3.1 54 3.9 WNW 28 35 15 19 1017.4 1017.3 0.0
25/01:00am 11.4 5.4 3.4 58 3.5 WNW 24 32 13 17 1017.5 1017.4 0.0
25/12:30am 11.9 5.5 3.0 54 3.9 WNW 26 32 14 17 1017.6 1017.5 0.0
25/12:00am 12.2 6.1 2.8 52 4.1 WNW 24 32 13 17 1017.8 1017.7 0.0
 
Date/Time
EST
Tmp

°C
App
Tmp
°C
Dew
Point
°C
Rel
Hum
%
Delta-T

°C
Wind Press
QNH
hPa
Press
MSL
hPa
Rain
since
9 am
mm
Dir
 
Spd
km/h
Gust
km/h
Spd
kts
Gust
kts
24/11:30pm 12.6 6.5 2.8 51 4.3 NW 24 32 13 17 1017.8 1017.7 0.0
24/11:00pm 12.4 7.3 2.8 52 4.2 NW 19 26 10 14 1018.0 1017.9 0.0
24/10:30pm 12.3 7.5 2.4 51 4.3 WNW 17 20 9 11 1017.9 1017.8 0.0
24/10:00pm 12.7 7.8 2.0 48 4.6 WNW 17 20 9 11 1017.9 1017.8 0.0
24/09:30pm 13.4 8.5 1.8 45 5.0 WNW 17 26 9 14 1017.7 1017.6 0.0
24/09:00pm 14.2 8.9 1.8 43 5.4 WNW 19 28 10 15 1017.4 1017.3 0.0
24/08:30pm 14.7 8.7 1.3 40 5.8 WNW 22 30 12 16 1016.9 1016.8 0.0
24/08:00pm 15.1 9.1 1.3 39 6.0 WNW 22 32 12 17 1016.7 1016.6 0.0
24/07:30pm 15.8 9.4 0.7 36 6.5 WNW 24 32 13 17 1016.3 1016.2 0.0
24/07:00pm 15.9 9.4 0.6 35 6.6 WNW 24 30 13 16 1016.1 1016.0 0.0
24/06:30pm 16.3 10.3 0.9 35 6.7 WNW 22 32 12 17 1016.0 1015.9 0.0
24/06:00pm 16.7 10.7 1.2 35 6.8 WNW 22 32 12 17 1015.5 1015.4 0.0
24/05:30pm 17.0 11.2 2.4 37 6.6 WNW 22 30 12 16 1015.2 1015.1 0.0
24/05:00pm 18.2 12.5 2.8 35 7.1 WNW 22 33 12 18 1015.0 1014.9 0.0
24/04:30pm 19.3 12.8 2.7 33 7.7 WNW 26 33 14 18 1014.6 1014.5 0.0

Latest Capital City Observations: Canberra | Sydney | Melbourne | Brisbane | Adelaide | Perth | Hobart | Darwin

Other Formats:

Comma delimited format used in spreadsheet applications
http://www.bom.gov.au/fwo/IDN60901/IDN60901.94776.axf

JavaScript Object Notation format (JSON) in row-major order
http://www.bom.gov.au/fwo/IDN60901/IDN60901.94776.json